Time;durP1;ratioP1;P1;durP2;ratioP2;P2;SDS_P1;SDS_P2;PMS_P1;PMS_P2;Temp;Humidity;BMP_temperature;BMP_pressure;BME280_temperature;BME280_humidity;BME280_pressure;Samples;Min_cycle;Max_cycle;Signal;HPM_P1;HPM_P2
2023/03/08 02:09:49;;;;;;;1999.90;999.90;;;;;;;;;;5789838;22;20666;-71
2023/03/08 02:12:34;;;;;;;1999.90;999.90;;;;;;;;;;4989061;28;20343;-73
2023/03/08 02:15:20;;;;;;;1999.90;999.90;;;;;;;;;;4985021;28;20409;-71
2023/03/08 02:18:05;;;;;;;1999.90;999.90;;;;;;;;;;4992719;28;20208;-72
2023/03/08 02:20:50;;;;;;;1999.90;999.90;;;;;;;;;;4984819;28;20242;-74
2023/03/08 02:23:36;;;;;;;1999.90;999.90;;;;;;;;;;4983949;28;20450;-71
2023/03/08 02:26:21;;;;;;;1999.90;999.90;;;;;;;;;;4985774;28;20568;-71
2023/03/08 02:29:07;;;;;;;1999.90;999.90;;;;;;;;;;4975363;28;20285;-71
2023/03/08 02:31:52;;;;;;;1999.90;999.90;;;;;;;;;;4973834;28;20422;-72
2023/03/08 02:34:37;;;;;;;1999.90;999.90;;;;;;;;;;4973607;28;20565;-71
2023/03/08 02:37:22;;;;;;;1999.90;999.90;;;;;;;;;;4972926;28;20424;-72
2023/03/08 02:40:11;;;;;;;1999.90;999.90;;;;;;;;;;4973518;28;20757;-71
2023/03/08 02:42:56;;;;;;;1999.90;999.90;;;;;;;;;;4973546;28;20447;-72
2023/03/08 02:45:41;;;;;;;1999.90;999.90;;;;;;;;;;4972765;28;20406;-73
2023/03/08 02:48:26;;;;;;;1999.90;999.90;;;;;;;;;;4973313;28;20214;-71
2023/03/08 02:51:11;;;;;;;1999.90;999.90;;;;;;;;;;4973278;28;20438;-72
2023/03/08 02:53:55;;;;;;;1999.90;999.90;;;;;;;;;;4973446;28;20434;-71
2023/03/08 02:56:42;;;;;;;1999.90;999.90;;;;;;;;;;4972986;28;20416;-71
2023/03/08 02:59:27;;;;;;;1999.90;999.90;;;;;;;;;;4971944;28;20434;-71
2023/03/08 03:02:11;;;;;;;1999.90;999.90;;;;;;;;;;4973485;28;20212;-72
2023/03/08 03:04:56;;;;;;;1999.90;999.90;;;;;;;;;;4976197;28;20468;-71
2023/03/08 03:07:42;;;;;;;1999.90;999.90;;;;;;;;;;4972980;28;20423;-72
2023/03/08 03:10:27;;;;;;;1999.90;999.90;;;;;;;;;;4972783;28;20462;-72
2023/03/08 03:13:13;;;;;;;1999.90;999.90;;;;;;;;;;4973095;28;20514;-72
2023/03/08 03:15:58;;;;;;;1999.90;999.90;;;;;;;;;;4972718;28;20272;-73
2023/03/08 03:18:43;;;;;;;1999.90;999.90;;;;;;;;;;4987284;28;20419;-72
2023/03/08 03:21:28;;;;;;;1999.90;999.90;;;;;;;;;;4991218;28;20417;-71
2023/03/08 03:24:13;;;;;;;1999.90;999.90;;;;;;;;;;4972814;28;20482;-70
2023/03/08 03:26:59;;;;;;;1999.90;999.90;;;;;;;;;;4991127;28;20425;-70
2023/03/08 03:29:45;;;;;;;1999.90;999.90;;;;;;;;;;4990958;28;20913;-73
2023/03/08 03:32:30;;;;;;;1999.90;999.90;;;;;;;;;;4983632;28;20460;-69
2023/03/08 03:35:15;;;;;;;1999.90;999.90;;;;;;;;;;4983384;28;20588;-71
2023/03/08 03:38:00;;;;;;;1999.90;999.90;;;;;;;;;;4982701;28;20437;-71
2023/03/08 03:40:46;;;;;;;1999.90;999.90;;;;;;;;;;4972109;28;20935;-71
2023/03/08 03:43:31;;;;;;;1999.90;999.90;;;;;;;;;;4983731;28;20463;-72
2023/03/08 03:46:18;;;;;;;1999.90;999.90;;;;;;;;;;4984484;28;20418;-72
2023/03/08 03:49:03;;;;;;;1999.90;999.90;;;;;;;;;;4975875;28;20223;-70
2023/03/08 03:51:48;;;;;;;1999.90;999.90;;;;;;;;;;4986499;28;20750;-71
2023/03/08 03:54:34;;;;;;;1999.90;999.90;;;;;;;;;;4995384;28;20552;-71
2023/03/08 03:57:19;;;;;;;1999.90;999.90;;;;;;;;;;4987948;28;20549;-72
2023/03/08 04:00:06;;;;;;;1999.90;999.90;;;;;;;;;;4995386;28;20265;-71
2023/03/08 04:02:52;;;;;;;1999.90;999.90;;;;;;;;;;4986563;28;20211;-73
2023/03/08 04:05:37;;;;;;;1999.90;999.90;;;;;;;;;;4975920;28;20637;-72
2023/03/08 04:08:21;;;;;;;1999.90;999.90;;;;;;;;;;4983820;28;20218;-72
2023/03/08 04:11:06;;;;;;;1999.90;999.90;;;;;;;;;;4975895;28;20259;-72
2023/03/08 04:13:51;;;;;;;1999.90;999.90;;;;;;;;;;4975796;28;20716;-72
2023/03/08 04:16:37;;;;;;;1999.90;999.90;;;;;;;;;;4975762;28;20762;-72
2023/03/08 04:19:23;;;;;;;1999.90;999.90;;;;;;;;;;4986883;28;20594;-72
2023/03/08 04:22:08;;;;;;;1999.90;999.90;;;;;;;;;;4984393;28;20216;-72
2023/03/08 04:24:53;;;;;;;1999.90;999.90;;;;;;;;;;4992039;28;20745;-73
2023/03/08 04:27:38;;;;;;;1999.90;999.90;;;;;;;;;;4988210;28;20347;-72
2023/03/08 04:30:23;;;;;;;1999.90;999.90;;;;;;;;;;4987920;28;20900;-72
2023/03/08 04:33:08;;;;;;;1999.90;999.90;;;;;;;;;;4991261;28;20574;-72
2023/03/08 04:35:54;;;;;;;1999.90;999.90;;;;;;;;;;4991956;28;20960;-72
2023/03/08 04:38:39;;;;;;;1999.90;999.90;;;;;;;;;;4983810;28;20219;-71
2023/03/08 04:41:24;;;;;;;1999.90;999.90;;;;;;;;;;4978881;28;20327;-72
2023/03/08 04:44:09;;;;;;;1999.90;999.90;;;;;;;;;;4986601;28;20221;-70
2023/03/08 04:46:54;;;;;;;1999.90;999.90;;;;;;;;;;4993486;28;20711;-72
2023/03/08 04:49:39;;;;;;;1999.90;999.90;;;;;;;;;;4986432;28;20239;-72
2023/03/08 04:52:25;;;;;;;1999.90;999.90;;;;;;;;;;4992966;28;20327;-72
2023/03/08 04:55:10;;;;;;;1999.90;999.90;;;;;;;;;;4983644;28;20215;-71
2023/03/08 04:57:55;;;;;;;1999.90;999.90;;;;;;;;;;4985021;28;20215;-72
2023/03/08 05:00:40;;;;;;;1999.90;999.90;;;;;;;;;;4993625;28;20223;-71
2023/03/08 05:03:25;;;;;;;1999.90;999.90;;;;;;;;;;4982707;28;20680;-72
2023/03/08 05:06:10;;;;;;;1999.90;999.90;;;;;;;;;;4981398;28;20502;-72
2023/03/08 05:08:56;;;;;;;1999.90;999.90;;;;;;;;;;4992150;28;20211;-70
2023/03/08 05:11:41;;;;;;;1999.90;999.90;;;;;;;;;;4990347;28;20214;-72
2023/03/08 05:14:26;;;;;;;1999.90;999.90;;;;;;;;;;4982673;28;20215;-72
2023/03/08 05:17:11;;;;;;;1999.90;999.90;;;;;;;;;;4987846;28;20219;-71
2023/03/08 05:19:56;;;;;;;1999.90;999.90;;;;;;;;;;4988524;28;20555;-72
2023/03/08 05:22:40;;;;;;;1999.90;999.90;;;;;;;;;;4988367;28;20331;-72
2023/03/08 05:25:27;;;;;;;1999.90;999.90;;;;;;;;;;4985864;28;20236;-72
2023/03/08 05:28:14;;;;;;;1999.90;999.90;;;;;;;;;;4985674;28;20216;-70
2023/03/08 05:31:00;;;;;;;1999.90;999.90;;;;;;;;;;4992754;28;20305;-71
2023/03/08 05:33:49;;;;;;;1999.90;999.90;;;;;;;;;;4985739;28;20203;-70
2023/03/08 05:36:34;;;;;;;1999.90;999.90;;;;;;;;;;4987094;28;20585;-72
2023/03/08 05:39:19;;;;;;;1999.90;999.90;;;;;;;;;;4974163;28;20806;-72
2023/03/08 05:42:06;;;;;;;1999.90;999.90;;;;;;;;;;4985894;28;20417;-71
2023/03/08 05:44:51;;;;;;;1999.90;999.90;;;;;;;;;;4992666;28;20655;-71
2023/03/08 05:47:36;;;;;;;1999.90;999.90;;;;;;;;;;4981922;28;20417;-71
2023/03/08 05:50:21;;;;;;;1999.90;999.90;;;;;;;;;;4981292;28;20475;-71
2023/03/08 05:53:06;;;;;;;1999.90;999.90;;;;;;;;;;4985182;28;20421;-72
2023/03/08 05:55:51;;;;;;;1999.90;999.90;;;;;;;;;;4992552;28;20496;-70
2023/03/08 05:58:37;;;;;;;1999.90;999.90;;;;;;;;;;4987530;28;20317;-71
2023/03/08 06:01:23;;;;;;;1999.90;999.90;;;;;;;;;;4988646;28;21113;-74
2023/03/08 06:04:08;;;;;;;1999.90;999.90;;;;;;;;;;4991014;28;20230;-71
2023/03/08 06:06:53;;;;;;;1999.90;999.90;;;;;;;;;;4984869;28;20210;-70
2023/03/08 06:09:39;;;;;;;1999.90;999.90;;;;;;;;;;4978490;28;20918;-73
2023/03/08 06:12:25;;;;;;;1999.90;999.90;;;;;;;;;;4984828;28;20444;-73
2023/03/08 06:15:12;;;;;;;1999.90;999.90;;;;;;;;;;4989700;28;20456;-73
2023/03/08 06:17:57;;;;;;;1999.90;999.90;;;;;;;;;;4989787;28;20219;-73
2023/03/08 06:20:42;;;;;;;1999.90;999.90;;;;;;;;;;4985688;28;20238;-73
2023/03/08 06:23:27;;;;;;;1999.90;999.90;;;;;;;;;;4973532;28;20786;-73
2023/03/08 06:26:12;;;;;;;1999.90;999.90;;;;;;;;;;4983324;28;20613;-73
2023/03/08 06:28:58;;;;;;;1999.90;999.90;;;;;;;;;;4991889;28;20203;-73
2023/03/08 06:31:44;;;;;;;1999.90;999.90;;;;;;;;;;4984694;28;20205;-73
2023/03/08 06:34:29;;;;;;;1999.90;999.90;;;;;;;;;;4989088;28;20910;-73
2023/03/08 06:37:14;;;;;;;1999.90;999.90;;;;;;;;;;4984248;28;20212;-73
2023/03/08 06:39:59;;;;;;;1999.90;999.90;;;;;;;;;;4985206;28;20736;-74
2023/03/08 06:42:44;;;;;;;1999.90;999.90;;;;;;;;;;4984678;28;20346;-73
2023/03/08 06:45:29;;;;;;;1999.90;999.90;;;;;;;;;;4976797;28;20235;-72
2023/03/08 06:48:15;;;;;;;1999.90;999.90;;;;;;;;;;4978958;28;20274;-72
2023/03/08 06:51:00;;;;;;;1999.90;999.90;;;;;;;;;;4985321;28;20247;-72
2023/03/08 06:53:46;;;;;;;1999.90;999.90;;;;;;;;;;4985441;28;20289;-72
2023/03/08 06:56:31;;;;;;;1999.90;999.90;;;;;;;;;;4982625;28;20783;-72
2023/03/08 06:59:16;;;;;;;1999.90;999.90;;;;;;;;;;4982966;28;20441;-73
2023/03/08 07:02:01;;;;;;;1999.90;999.90;;;;;;;;;;4979739;28;20264;-72
2023/03/08 07:04:47;;;;;;;1999.90;999.90;;;;;;;;;;4990802;28;20834;-70
2023/03/08 07:07:32;;;;;;;1999.90;999.90;;;;;;;;;;4984324;28;20218;-71
2023/03/08 07:10:18;;;;;;;1999.90;999.90;;;;;;;;;;4980962;28;20583;-72
2023/03/08 07:13:03;;;;;;;1999.90;999.90;;;;;;;;;;4984615;28;20802;-73
2023/03/08 07:15:48;;;;;;;1999.90;999.90;;;;;;;;;;4980004;28;20699;-72
2023/03/08 07:18:33;;;;;;;1999.90;999.90;;;;;;;;;;4983749;28;20414;-73
2023/03/08 07:21:19;;;;;;;1999.90;999.90;;;;;;;;;;4985841;28;20885;-72
2023/03/08 07:24:04;;;;;;;1999.90;999.90;;;;;;;;;;4984788;28;20421;-71
2023/03/08 07:26:50;;;;;;;1999.90;999.90;;;;;;;;;;4987793;28;20500;-72
2023/03/08 07:29:35;;;;;;;1999.90;999.90;;;;;;;;;;4984520;28;20279;-72
2023/03/08 07:32:20;;;;;;;1999.90;999.90;;;;;;;;;;4983813;28;20423;-73
2023/03/08 07:35:05;;;;;;;1999.90;999.90;;;;;;;;;;4984912;28;20214;-71
2023/03/08 07:37:52;;;;;;;1999.90;999.90;;;;;;;;;;4983700;28;20697;-72
2023/03/08 07:40:36;;;;;;;1999.90;999.90;;;;;;;;;;4987143;28;20980;-72
2023/03/08 07:43:22;;;;;;;1999.90;999.90;;;;;;;;;;4984317;28;20207;-71
2023/03/08 07:46:07;;;;;;;1999.90;999.90;;;;;;;;;;4983662;28;20234;-69
2023/03/08 07:48:52;;;;;;;1999.90;999.90;;;;;;;;;;4980213;28;20211;-70
2023/03/08 07:51:37;;;;;;;1999.90;999.90;;;;;;;;;;4986647;28;20211;-70
2023/03/08 07:54:24;;;;;;;1999.90;999.90;;;;;;;;;;4980997;28;20422;-70
2023/03/08 07:57:12;;;;;;;1999.90;999.90;;;;;;;;;;4979838;28;20242;-70
2023/03/08 07:59:57;;;;;;;1999.90;999.90;;;;;;;;;;4981269;28;20814;-72
2023/03/08 08:02:42;;;;;;;1999.90;999.90;;;;;;;;;;4980419;28;20511;-73
2023/03/08 08:05:27;;;;;;;1999.90;999.90;;;;;;;;;;4978971;28;20215;-71
2023/03/08 08:08:16;;;;;;;1999.90;999.90;;;;;;;;;;4987491;28;20291;-71
2023/03/08 08:11:02;;;;;;;1999.90;999.90;;;;;;;;;;4987278;28;20254;-72
2023/03/08 08:13:46;;;;;;;1999.90;999.90;;;;;;;;;;4980586;28;20211;-71
2023/03/08 08:16:32;;;;;;;1999.90;999.90;;;;;;;;;;4975586;28;20545;-71
2023/03/08 08:19:17;;;;;;;1999.90;999.90;;;;;;;;;;4979116;28;20605;-72
2023/03/08 08:22:02;;;;;;;1999.90;999.90;;;;;;;;;;4984866;28;20708;-70
2023/03/08 08:24:47;;;;;;;1999.90;999.90;;;;;;;;;;4984800;28;20215;-71
2023/03/08 08:27:33;;;;;;;1999.90;999.90;;;;;;;;;;4990164;28;20728;-71
2023/03/08 08:30:19;;;;;;;1999.90;999.90;;;;;;;;;;4986497;28;20235;-71
2023/03/08 08:33:05;;;;;;;1999.90;999.90;;;;;;;;;;4994057;28;20298;-71
2023/03/08 08:35:50;;;;;;;1999.90;999.90;;;;;;;;;;4986790;28;20210;-72
2023/03/08 08:38:35;;;;;;;1999.90;999.90;;;;;;;;;;4974713;28;20594;-71
2023/03/08 08:41:21;;;;;;;1999.90;999.90;;;;;;;;;;4993447;28;20270;-71
2023/03/08 08:44:08;;;;;;;1999.90;999.90;;;;;;;;;;4992503;28;20533;-71
2023/03/08 08:46:53;;;;;;;1999.90;999.90;;;;;;;;;;4982853;28;20224;-71
2023/03/08 08:49:38;;;;;;;1999.90;999.90;;;;;;;;;;4989769;28;20270;-70
2023/03/08 08:52:23;;;;;;;1999.90;999.90;;;;;;;;;;4978925;28;20327;-72
2023/03/08 08:55:08;;;;;;;1999.90;999.90;;;;;;;;;;4986490;28;20282;-71
2023/03/08 08:57:53;;;;;;;1999.90;999.90;;;;;;;;;;4992614;28;20533;-71
2023/03/08 09:00:39;;;;;;;1999.90;999.90;;;;;;;;;;4985210;28;20232;-70
2023/03/08 09:03:24;;;;;;;1999.90;999.90;;;;;;;;;;4989995;28;20223;-71
2023/03/08 09:06:09;;;;;;;1999.90;999.90;;;;;;;;;;4991343;28;20315;-71
2023/03/08 09:08:54;;;;;;;1999.90;999.90;;;;;;;;;;4993478;28;20692;-73
2023/03/08 09:11:39;;;;;;;1999.90;999.90;;;;;;;;;;4982778;28;20207;-72
2023/03/08 09:14:24;;;;;;;1999.90;999.90;;;;;;;;;;4978515;28;20342;-72
2023/03/08 09:17:10;;;;;;;1999.90;999.90;;;;;;;;;;4988508;28;20571;-72
2023/03/08 09:19:55;;;;;;;1999.90;999.90;;;;;;;;;;4993049;28;20654;-70
2023/03/08 09:22:41;;;;;;;1999.90;999.90;;;;;;;;;;4991167;28;20798;-71
2023/03/08 09:25:25;;;;;;;1999.90;999.90;;;;;;;;;;4988012;28;20223;-71
2023/03/08 09:28:11;;;;;;;1999.90;999.90;;;;;;;;;;4976870;28;20438;-72
2023/03/08 09:30:56;;;;;;;1999.90;999.90;;;;;;;;;;4982902;28;20230;-71
2023/03/08 09:33:43;;;;;;;1999.90;999.90;;;;;;;;;;4980684;28;20266;-71
2023/03/08 09:36:28;;;;;;;1999.90;999.90;;;;;;;;;;4981552;28;20335;-71
2023/03/08 09:39:13;;;;;;;1999.90;999.90;;;;;;;;;;4976416;28;20343;-71
2023/03/08 09:41:59;;;;;;;1999.90;999.90;;;;;;;;;;4982094;28;20477;-72
2023/03/08 09:44:51;;;;;;;1999.90;999.90;;;;;;;;;;4982585;28;20226;-71
2023/03/08 09:47:42;;;;;;;1999.90;999.90;;;;;;;;;;4976336;28;20195;-71
2023/03/08 09:50:40;;;;;;;1999.90;999.90;;;;;;;;;;4980975;28;20227;-71
2023/03/08 09:53:27;;;;;;;1999.90;999.90;;;;;;;;;;4982158;28;20341;-71
2023/03/08 09:56:16;;;;;;;1999.90;999.90;;;;;;;;;;4979328;28;20204;-70
2023/03/08 09:59:04;;;;;;;1999.90;999.90;;;;;;;;;;4979753;28;20203;-70
2023/03/08 10:01:55;;;;;;;1999.90;999.90;;;;;;;;;;4981385;28;20216;-71
2023/03/08 10:04:46;;;;;;;1999.90;999.90;;;;;;;;;;4977346;28;20203;-70
2023/03/08 10:07:36;;;;;;;1999.90;999.90;;;;;;;;;;4980409;28;20312;-71
2023/03/08 10:10:26;;;;;;;1999.90;999.90;;;;;;;;;;4978797;28;20242;-70
2023/03/08 10:13:26;;;;;;;1999.90;999.90;;;;;;;;;;4985274;28;20742;-70
2023/03/08 10:16:15;;;;;;;1999.90;999.90;;;;;;;;;;4980281;28;20212;-71
2023/03/08 10:19:02;;;;;;;1999.90;999.90;;;;;;;;;;4984191;28;20316;-70
2023/03/08 10:21:48;;;;;;;1999.90;999.90;;;;;;;;;;4972847;28;20230;-75
2023/03/08 10:24:37;;;;;;;1999.90;999.90;;;;;;;;;;4987604;28;20207;-76
2023/03/08 10:27:23;;;;;;;1999.90;999.90;;;;;;;;;;4982379;28;20211;-75
2023/03/08 10:30:13;;;;;;;1999.90;999.90;;;;;;;;;;4989204;28;20238;-75
2023/03/08 10:32:59;;;;;;;1999.90;999.90;;;;;;;;;;4975504;28;20227;-75
2023/03/08 10:35:54;;;;;;;1999.90;999.90;;;;;;;;;;4980467;28;20204;-75
2023/03/08 10:38:39;;;;;;;1999.90;999.90;;;;;;;;;;4972425;28;20208;-73
2023/03/08 10:41:27;;;;;;;1999.90;999.90;;;;;;;;;;4980261;28;20338;-76
2023/03/08 10:44:28;;;;;;;1999.90;999.90;;;;;;;;;;4975322;28;20219;-73
2023/03/08 10:47:18;;;;;;;1999.90;999.90;;;;;;;;;;4987721;28;20298;-75
2023/03/08 10:50:12;;;;;;;1999.90;999.90;;;;;;;;;;4980809;28;20226;-74
2023/03/08 10:53:07;;;;;;;1999.90;999.90;;;;;;;;;;4980504;28;20207;-75
2023/03/08 10:55:52;;;;;;;1999.90;999.90;;;;;;;;;;4981975;28;20432;-75
2023/03/08 10:58:39;;;;;;;1999.90;999.90;;;;;;;;;;4980789;28;20215;-75
2023/03/08 11:01:25;;;;;;;1999.90;999.90;;;;;;;;;;4986469;28;20211;-75
2023/03/08 11:04:14;;;;;;;1999.90;999.90;;;;;;;;;;4978833;28;20211;-75
2023/03/08 11:07:09;;;;;;;1999.90;999.90;;;;;;;;;;4981097;28;20227;-75
2023/03/08 11:10:04;;;;;;;1999.90;999.90;;;;;;;;;;4978012;28;20411;-75
2023/03/08 11:12:50;;;;;;;1999.90;999.90;;;;;;;;;;4983227;28;20295;-76
2023/03/08 11:15:38;;;;;;;1999.90;999.90;;;;;;;;;;4986072;28;20207;-74
2023/03/08 11:18:28;;;;;;;1999.90;999.90;;;;;;;;;;4974379;28;20219;-74
2023/03/08 11:21:14;;;;;;;1999.90;999.90;;;;;;;;;;4985889;28;20771;-74
2023/03/08 11:24:05;;;;;;;1999.90;999.90;;;;;;;;;;4981316;28;20262;-74
2023/03/08 11:26:55;;;;;;;1999.90;999.90;;;;;;;;;;4982500;28;20787;-74
2023/03/08 11:29:48;;;;;;;1999.90;999.90;;;;;;;;;;4981897;28;20599;-74
2023/03/08 11:32:43;;;;;;;1999.90;999.90;;;;;;;;;;4974244;28;20216;-74
2023/03/08 11:35:31;;;;;;;1999.90;999.90;;;;;;;;;;4981391;28;20211;-76
2023/03/08 11:38:18;;;;;;;1999.90;999.90;;;;;;;;;;4979063;28;20410;-75
2023/03/08 11:41:06;;;;;;;1999.90;999.90;;;;;;;;;;4974384;28;20224;-74
2023/03/08 11:44:07;;;;;;;1999.90;999.90;;;;;;;;;;4981295;28;20204;-74
2023/03/08 11:46:56;;;;;;;1999.90;999.90;;;;;;;;;;4984142;28;20605;-74
2023/03/08 11:49:49;;;;;;;1999.90;999.90;;;;;;;;;;4977882;28;20607;-73
2023/03/08 11:52:38;;;;;;;1999.90;999.90;;;;;;;;;;4981867;28;20889;-72
2023/03/08 11:55:31;;;;;;;1999.90;999.90;;;;;;;;;;4976338;28;20207;-75
2023/03/08 11:58:21;;;;;;;1999.90;999.90;;;;;;;;;;4985108;28;20215;-74
2023/03/08 12:01:09;;;;;;;1999.90;999.90;;;;;;;;;;4982197;28;20357;-74
2023/03/08 12:03:57;;;;;;;1999.90;999.90;;;;;;;;;;4980043;28;20224;-74
2023/03/08 12:06:45;;;;;;;1999.90;999.90;;;;;;;;;;4979617;28;20211;-74
2023/03/08 12:09:32;;;;;;;1999.90;999.90;;;;;;;;;;4980726;28;20243;-75
2023/03/08 12:12:21;;;;;;;1999.90;999.90;;;;;;;;;;4983584;28;20252;-75
2023/03/08 12:15:11;;;;;;;1999.90;999.90;;;;;;;;;;4977026;28;20204;-75
2023/03/08 12:17:59;;;;;;;1999.90;999.90;;;;;;;;;;4985920;28;20205;-75
2023/03/08 12:20:45;;;;;;;1999.90;999.90;;;;;;;;;;4975241;28;20230;-76
2023/03/08 12:23:35;;;;;;;1999.90;999.90;;;;;;;;;;4986208;28;20211;-72
2023/03/08 12:26:23;;;;;;;1999.90;999.90;;;;;;;;;;4975508;28;20288;-74
2023/03/08 12:29:13;;;;;;;1999.90;999.90;;;;;;;;;;4980917;28;20229;-74
2023/03/08 12:31:59;;;;;;;1999.90;999.90;;;;;;;;;;4984606;28;20207;-75
2023/03/08 12:34:45;;;;;;;1999.90;999.90;;;;;;;;;;4979380;28;20418;-75
2023/03/08 12:37:30;;;;;;;1999.90;999.90;;;;;;;;;;4985894;28;20208;-75
2023/03/08 12:40:37;;;;;;;1999.90;999.90;;;;;;;;;;4983536;28;20242;-73
2023/03/08 12:43:28;;;;;;;1999.90;999.90;;;;;;;;;;4983725;28;20280;-73
2023/03/08 12:46:13;;;;;;;1999.90;999.90;;;;;;;;;;4982098;28;20236;-74
2023/03/08 12:48:58;;;;;;;1999.90;999.90;;;;;;;;;;4985295;28;20704;-73
2023/03/08 12:51:43;;;;;;;1999.90;999.90;;;;;;;;;;4982799;28;20212;-74
2023/03/08 12:54:29;;;;;;;1999.90;999.90;;;;;;;;;;4986212;28;20676;-75
2023/03/08 12:57:21;;;;;;;1999.90;999.90;;;;;;;;;;4979508;28;20828;-74
2023/03/08 13:00:09;;;;;;;1999.90;999.90;;;;;;;;;;4979011;28;20315;-75
2023/03/08 13:03:01;;;;;;;1999.90;999.90;;;;;;;;;;4979101;28;20207;-74
2023/03/08 13:05:49;;;;;;;1999.90;999.90;;;;;;;;;;4981611;28;20573;-75
2023/03/08 13:08:34;;;;;;;1999.90;999.90;;;;;;;;;;4978509;28;20336;-75
2023/03/08 13:11:20;;;;;;;1999.90;999.90;;;;;;;;;;4978236;28;20219;-75
2023/03/08 13:14:19;;;;;;;1999.90;999.90;;;;;;;;;;4983992;28;20208;-75
2023/03/08 13:17:20;;;;;;;1999.90;999.90;;;;;;;;;;4983079;28;20326;-75
2023/03/08 13:20:13;;;;;;;1999.90;999.90;;;;;;;;;;4980372;28;20306;-75
2023/03/08 13:23:01;;;;;;;1999.90;999.90;;;;;;;;;;4982501;28;20203;-75
2023/03/08 13:26:02;;;;;;;1999.90;999.90;;;;;;;;;;4979091;28;20212;-73
2023/03/08 13:28:47;;;;;;;1999.90;999.90;;;;;;;;;;4980830;28;20278;-75
2023/03/08 13:31:32;;;;;;;1999.90;999.90;;;;;;;;;;4979426;28;20687;-72
2023/03/08 13:34:23;;;;;;;1999.90;999.90;;;;;;;;;;4983807;28;20220;-74
2023/03/08 13:37:21;;;;;;;1999.90;999.90;;;;;;;;;;4980432;28;20208;-74
2023/03/08 13:40:15;;;;;;;1999.90;999.90;;;;;;;;;;4980673;28;20718;-75
2023/03/08 13:43:01;;;;;;;1999.90;999.90;;;;;;;;;;4976938;28;20287;-73
2023/03/08 13:45:46;;;;;;;1999.90;999.90;;;;;;;;;;4984927;28;20215;-75
2023/03/08 13:48:33;;;;;;;1999.90;999.90;;;;;;;;;;4975759;28;20204;-74
2023/03/08 13:51:18;;;;;;;1999.90;999.90;;;;;;;;;;4978794;28;20411;-75
2023/03/08 13:54:12;;;;;;;1999.90;999.90;;;;;;;;;;4979931;28;20570;-74
2023/03/08 13:56:57;;;;;;;1999.90;999.90;;;;;;;;;;4983024;28;20324;-73
2023/03/08 13:59:47;;;;;;;1999.90;999.90;;;;;;;;;;4977942;28;20258;-74
2023/03/08 14:02:32;;;;;;;1999.90;999.90;;;;;;;;;;4977142;28;20454;-74
2023/03/08 14:05:18;;;;;;;1999.90;999.90;;;;;;;;;;4979871;28;20808;-73
2023/03/08 14:08:04;;;;;;;1999.90;999.90;;;;;;;;;;4979792;28;20212;-73
2023/03/08 14:10:52;;;;;;;1999.90;999.90;;;;;;;;;;4978586;28;20255;-73
2023/03/08 14:13:38;;;;;;;1999.90;999.90;;;;;;;;;;4975257;28;20254;-75
2023/03/08 14:16:25;;;;;;;1999.90;999.90;;;;;;;;;;4979717;28;20196;-75
2023/03/08 14:19:11;;;;;;;1999.90;999.90;;;;;;;;;;4980759;28;20267;-73
2023/03/08 14:21:57;;;;;;;1999.90;999.90;;;;;;;;;;4982606;28;20215;-75
2023/03/08 14:24:43;;;;;;;1999.90;999.90;;;;;;;;;;4981053;28;20364;-74
2023/03/08 14:27:35;;;;;;;1999.90;999.90;;;;;;;;;;4986876;28;20227;-74
2023/03/08 14:30:21;;;;;;;1999.90;999.90;;;;;;;;;;4978975;28;20595;-76
2023/03/08 14:33:19;;;;;;;1999.90;999.90;;;;;;;;;;4983487;28;20468;-72
2023/03/08 14:36:04;;;;;;;1999.90;999.90;;;;;;;;;;4974604;28;20204;-72
2023/03/08 14:38:49;;;;;;;1999.90;999.90;;;;;;;;;;4979990;28;20211;-74
2023/03/08 14:41:36;;;;;;;1999.90;999.90;;;;;;;;;;4983402;28;20215;-73
2023/03/08 14:44:23;;;;;;;1999.90;999.90;;;;;;;;;;4982108;28;20230;-73
2023/03/08 14:47:09;;;;;;;1999.90;999.90;;;;;;;;;;4980815;28;20223;-74
2023/03/08 14:49:55;;;;;;;1999.90;999.90;;;;;;;;;;4980592;28;20235;-74
2023/03/08 14:52:44;;;;;;;1999.90;999.90;;;;;;;;;;4979051;28;20800;-73
2023/03/08 14:55:30;;;;;;;1999.90;999.90;;;;;;;;;;4979733;28;20207;-74
2023/03/08 14:58:15;;;;;;;1999.90;999.90;;;;;;;;;;4975564;28;20697;-73
2023/03/08 15:01:02;;;;;;;1999.90;999.90;;;;;;;;;;4979374;28;20227;-76
2023/03/08 15:03:47;;;;;;;1999.90;999.90;;;;;;;;;;4973858;28;20236;-74
2023/03/08 15:06:32;;;;;;;1999.90;999.90;;;;;;;;;;4975290;28;20584;-73
2023/03/08 15:09:18;;;;;;;1999.90;999.90;;;;;;;;;;4979883;28;20236;-75
2023/03/08 15:12:06;;;;;;;1999.90;999.90;;;;;;;;;;4975215;28;20222;-76
2023/03/08 15:14:51;;;;;;;1999.90;999.90;;;;;;;;;;4980831;28;20695;-75
2023/03/08 15:17:37;;;;;;;1999.90;999.90;;;;;;;;;;4972188;28;20819;-74
2023/03/08 15:20:23;;;;;;;1999.90;999.90;;;;;;;;;;4977251;28;20223;-74
2023/03/08 15:23:08;;;;;;;1999.90;999.90;;;;;;;;;;4975582;28;20203;-75
2023/03/08 15:25:53;;;;;;;1999.90;999.90;;;;;;;;;;4975711;28;20218;-74
2023/03/08 15:28:38;;;;;;;1999.90;999.90;;;;;;;;;;4981932;28;20231;-74
2023/03/08 15:31:23;;;;;;;1999.90;999.90;;;;;;;;;;4972610;28;20402;-75
2023/03/08 15:34:09;;;;;;;1999.90;999.90;;;;;;;;;;4972853;28;20590;-75
2023/03/08 15:36:55;;;;;;;1999.90;999.90;;;;;;;;;;4982086;28;20207;-75
2023/03/08 15:39:40;;;;;;;1999.90;999.90;;;;;;;;;;4983376;28;20232;-75
2023/03/08 15:42:25;;;;;;;1999.90;999.90;;;;;;;;;;4985496;28;20203;-74
2023/03/08 15:45:11;;;;;;;1999.90;999.90;;;;;;;;;;4981206;28;22148;-74
2023/03/08 15:47:56;;;;;;;1999.90;999.90;;;;;;;;;;4987213;28;20228;-75
2023/03/08 15:50:43;;;;;;;1999.90;999.90;;;;;;;;;;4983875;28;20223;-76
2023/03/08 15:53:29;;;;;;;1999.90;999.90;;;;;;;;;;4983131;28;20302;-73
2023/03/08 15:56:14;;;;;;;1999.90;999.90;;;;;;;;;;4985362;28;20211;-74
2023/03/08 15:58:59;;;;;;;1999.90;999.90;;;;;;;;;;4983381;28;20211;-75
2023/03/08 16:01:44;;;;;;;1999.90;999.90;;;;;;;;;;4986662;28;20442;-75
2023/03/08 16:04:29;;;;;;;1999.90;999.90;;;;;;;;;;4983126;28;20215;-74
2023/03/08 16:07:17;;;;;;;1999.90;999.90;;;;;;;;;;4979265;28;20247;-78
2023/03/08 16:10:03;;;;;;;1999.90;999.90;;;;;;;;;;4976543;28;20240;-74
2023/03/08 16:12:49;;;;;;;1999.90;999.90;;;;;;;;;;4989121;28;20227;-77
2023/03/08 16:15:33;;;;;;;1999.90;999.90;;;;;;;;;;4983971;28;20215;-73
2023/03/08 16:18:18;;;;;;;1999.90;999.90;;;;;;;;;;4977607;28;20716;-75
2023/03/08 16:21:06;;;;;;;1999.90;999.90;;;;;;;;;;4985683;28;20240;-75
2023/03/08 16:23:52;;;;;;;1999.90;999.90;;;;;;;;;;4983915;28;20211;-73
2023/03/08 16:26:38;;;;;;;1999.90;999.90;;;;;;;;;;4989380;28;20216;-73
2023/03/08 16:29:23;;;;;;;1999.90;999.90;;;;;;;;;;4983089;28;20248;-75
2023/03/08 16:32:09;;;;;;;1999.90;999.90;;;;;;;;;;4990844;28;20291;-75
2023/03/08 16:34:56;;;;;;;1999.90;999.90;;;;;;;;;;4992020;28;20819;-74
2023/03/08 16:37:41;;;;;;;1999.90;999.90;;;;;;;;;;4984115;28;20572;-74
2023/03/08 16:40:29;;;;;;;1999.90;999.90;;;;;;;;;;4985914;28;20734;-75
2023/03/08 16:43:16;;;;;;;1999.90;999.90;;;;;;;;;;4986287;28;20711;-75
2023/03/08 16:46:01;;;;;;;1999.90;999.90;;;;;;;;;;4973872;28;20410;-73
2023/03/08 16:48:48;;;;;;;1999.90;999.90;;;;;;;;;;4978071;28;20759;-73
2023/03/08 16:51:34;;;;;;;1999.90;999.90;;;;;;;;;;4981212;28;20208;-73
2023/03/08 16:54:19;;;;;;;1999.90;999.90;;;;;;;;;;4974475;28;20291;-73
2023/03/08 16:57:05;;;;;;;1999.90;999.90;;;;;;;;;;4975338;28;20204;-72
2023/03/08 16:59:50;;;;;;;1999.90;999.90;;;;;;;;;;4977011;28;20887;-73
2023/03/08 17:02:35;;;;;;;1999.90;999.90;;;;;;;;;;4979634;28;20577;-74
2023/03/08 17:05:20;;;;;;;1999.90;999.90;;;;;;;;;;4986440;28;20215;-73
2023/03/08 17:08:05;;;;;;;1999.90;999.90;;;;;;;;;;4974285;28;21374;-74
2023/03/08 17:10:50;;;;;;;1999.90;999.90;;;;;;;;;;4982993;28;20235;-74
2023/03/08 17:13:36;;;;;;;1999.90;999.90;;;;;;;;;;4984977;28;20211;-74
2023/03/08 17:16:22;;;;;;;1999.90;999.90;;;;;;;;;;4980545;28;20680;-75
2023/03/08 17:19:08;;;;;;;1999.90;999.90;;;;;;;;;;4992914;28;20684;-73
2023/03/08 17:21:54;;;;;;;1999.90;999.90;;;;;;;;;;4989951;28;20208;-74
2023/03/08 17:24:39;;;;;;;1999.90;999.90;;;;;;;;;;4987226;28;20280;-74
2023/03/08 17:27:24;;;;;;;1999.90;999.90;;;;;;;;;;4983780;28;20653;-74
2023/03/08 17:30:13;;;;;;;1999.90;999.90;;;;;;;;;;4977830;28;20411;-74
2023/03/08 17:32:58;;;;;;;1999.90;999.90;;;;;;;;;;4979152;28;20212;-75
2023/03/08 17:35:43;;;;;;;1999.90;999.90;;;;;;;;;;4987871;28;20212;-73
2023/03/08 17:38:28;;;;;;;1999.90;999.90;;;;;;;;;;4983322;28;20195;-74